Upstream stations:
Downstream station:
SHEF ID: CARO2 North Fork Red River near Carter
STATION TYPE:
Regulating: Stage = 11.00, Flow = 1583
PRECIP STAGE STAGE(2) RIV-FLOW BAT-LOAD
in ft ft cfs volt
Ccp-Rev Ccp-Rev Ccp-Rev Ccp-Rev Ccp-Rev
(US/Central)
07/08 00:00 0.00 5.21 4.61 26 12.67
07/08 01:00 0.00 5.27 4.61 30 12.67
07/08 02:00 0.00 5.27 4.61 30 12.67
07/08 03:00 0.00 5.28 4.62 31 12.67
07/08 04:00 0.00 5.30 4.62 32 12.66
07/08 05:00 0.00 5.32 4.62 34 12.66
07/08 06:00 0.00 5.34 4.62 35 12.64
07/08 07:00 0.00 5.32 4.62 34 12.64
07/08 08:00 0.00 5.28 4.62 31 12.65
07/08 09:00 0.00 5.28 4.63 31 12.85
07/08 10:00 0.00 5.29 4.63 32 12.99
07/08 11:00 0.00 5.30 4.63 32 13.12
07/08 12:00 0.00 5.35 4.62 36 13.09
07/08 13:00 0.00 5.36 4.62 37 13.03
07/08 14:00 0.00 5.34 4.61 35 13.20
07/08 15:00 0.00 5.34 4.60 35 13.07
07/08 16:00 0.00 5.33 4.60 35 13.03
07/08 17:00 0.00 5.28 4.59 31 12.76
07/08 18:00 0.00 5.23 4.58 27 12.70
07/08 19:00 0.00 5.26 4.58 29 12.70
07/08 20:00 0.00 5.26 4.58 29 12.73
07/08 21:00 0.00 5.23 4.58 27 12.69
07/08 22:00 0.00 5.25 4.59 29 12.67
07/08 23:00 0.00 5.25 4.60 29 12.67